createdAt,value
2023-04-15T00:00:56.123Z,5.00
2023-04-15T00:03:22.845Z,9.70
2023-04-15T00:05:49.549Z,6.43
2023-04-15T00:08:15.975Z,6.43
2023-04-15T00:10:44.276Z,5.15
2023-04-15T00:13:10.710Z,7.32
2023-04-15T00:15:37.692Z,5.97
2023-04-15T00:18:04.436Z,6.43
2023-04-15T00:20:31.330Z,3.65
2023-04-15T00:22:58.700Z,7.70
2023-04-15T00:25:25.106Z,5.22
2023-04-15T00:27:51.623Z,5.18
2023-04-15T00:30:18.505Z,6.87
2023-04-15T00:32:45.025Z,8.20
2023-04-15T00:35:11.618Z,6.43
2023-04-15T00:37:38.231Z,7.32
2023-04-15T00:40:05.109Z,6.43
2023-04-15T00:42:31.664Z,10.17
2023-04-15T00:44:58.069Z,4.63
2023-04-15T00:47:25.018Z,7.05
2023-04-15T00:49:52.119Z,6.70
2023-04-15T00:52:18.859Z,4.22
2023-04-15T00:54:45.279Z,5.03
2023-04-15T00:57:11.751Z,6.22
2023-04-15T00:59:38.199Z,5.13
2023-04-15T01:02:05.517Z,4.55
2023-04-15T01:04:32.670Z,7.72
2023-04-15T01:06:59.111Z,6.47
2023-04-15T01:09:25.608Z,5.57
2023-04-15T01:11:52.393Z,5.70
2023-04-15T01:14:19.517Z,5.85
2023-04-15T01:16:46.864Z,5.80
2023-04-15T01:19:16.594Z,6.67
2023-04-15T01:21:43.173Z,5.00
2023-04-15T01:24:11.202Z,6.60
2023-04-15T01:26:41.008Z,5.80
2023-04-15T01:29:08.333Z,6.88
2023-04-15T01:31:34.826Z,9.10
2023-04-15T01:34:01.370Z,8.10
2023-04-15T01:36:28.160Z,6.45
2023-04-15T01:38:55.960Z,5.22
2023-04-15T01:41:28.393Z,5.00
2023-04-15T01:43:55.644Z,6.20
2023-04-15T01:46:22.705Z,4.72
2023-04-15T01:48:49.119Z,5.28
2023-04-15T01:51:15.651Z,6.78
2023-04-15T01:53:42.054Z,7.20
2023-04-15T01:56:08.558Z,7.93
2023-04-15T01:58:35.094Z,5.88
2023-04-15T02:01:02.957Z,6.45
2023-04-15T02:03:29.853Z,6.53
2023-04-15T02:05:56.728Z,7.30
2023-04-15T02:08:23.670Z,8.87
2023-04-15T02:10:50.110Z,7.00
2023-04-15T02:13:17.027Z,5.18
2023-04-15T02:15:50.630Z,5.15
2023-04-15T02:18:17.032Z,8.27
2023-04-15T02:20:47.135Z,4.43
2023-04-15T02:23:13.769Z,6.97
2023-04-15T02:25:40.379Z,4.30
2023-04-15T02:28:06.938Z,8.32
2023-04-15T02:30:33.956Z,7.47
2023-04-15T02:33:01.313Z,6.87
2023-04-15T02:35:27.782Z,8.38
2023-04-15T02:37:54.272Z,9.73
2023-04-15T02:40:20.885Z,5.72
2023-04-15T02:42:47.737Z,8.35
2023-04-15T02:45:14.272Z,7.23
2023-04-15T02:47:41.476Z,6.93
2023-04-15T02:50:09.932Z,5.65
2023-04-15T02:52:36.352Z,6.50
2023-04-15T02:55:04.318Z,6.60
2023-04-15T02:57:30.927Z,7.00
2023-04-15T02:59:57.485Z,7.68
2023-04-15T03:02:24.465Z,4.28
2023-04-15T03:04:51.099Z,6.90
2023-04-15T03:07:18.185Z,5.18
2023-04-15T03:09:45.683Z,4.90
2023-04-15T03:12:12.233Z,7.07
2023-04-15T03:14:38.632Z,7.35
2023-04-15T03:17:05.108Z,7.80
2023-04-15T03:19:31.814Z,6.82
2023-04-15T03:21:58.190Z,10.17
2023-04-15T03:24:24.935Z,7.45
2023-04-15T03:26:51.495Z,8.98
2023-04-15T03:29:17.901Z,7.38
2023-04-15T03:31:44.312Z,9.75
2023-04-15T03:34:10.758Z,5.97
2023-04-15T03:36:37.303Z,6.35
2023-04-15T03:39:04.220Z,7.35
2023-04-15T03:41:30.906Z,9.07
2023-04-15T03:43:57.469Z,6.68
2023-04-15T03:46:24.180Z,5.03
2023-04-15T03:48:50.677Z,9.07
2023-04-15T03:51:17.185Z,6.50
2023-04-15T03:53:43.543Z,8.52
2023-04-15T03:56:10.054Z,6.70
2023-04-15T03:58:36.645Z,5.20
2023-04-15T04:01:03.045Z,5.45
2023-04-15T04:03:29.482Z,8.57
2023-04-15T04:05:56.286Z,9.20
2023-04-15T04:08:22.791Z,6.00
2023-04-15T04:10:49.201Z,11.27
2023-04-15T04:13:15.630Z,8.38
2023-04-15T04:15:42.043Z,7.00
2023-04-15T04:18:08.497Z,4.22
2023-04-15T04:20:35.045Z,11.77
2023-04-15T04:23:01.430Z,5.43
2023-04-15T04:25:28.126Z,5.32
2023-04-15T04:27:54.516Z,6.18
2023-04-15T04:30:20.920Z,6.28
2023-04-15T04:32:47.705Z,5.07
2023-04-15T04:35:14.132Z,3.57
2023-04-15T04:37:40.692Z,4.63
2023-04-15T04:40:08.118Z,5.15
2023-04-15T04:42:34.558Z,11.18
2023-04-15T04:45:01.116Z,6.35
2023-04-15T04:47:27.517Z,7.33
2023-04-15T04:49:53.943Z,5.82
2023-04-15T04:52:20.314Z,6.93
2023-04-15T04:54:47.352Z,7.22
2023-04-15T04:57:13.801Z,5.95
2023-04-15T04:59:40.414Z,6.47
2023-04-15T05:02:07.229Z,6.93
2023-04-15T05:04:34.443Z,7.65
2023-04-15T05:07:00.856Z,8.30
2023-04-15T05:09:27.297Z,7.65
2023-04-15T05:11:53.805Z,6.30
2023-04-15T05:14:21.160Z,7.00
2023-04-15T05:16:49.328Z,6.88
2023-04-15T05:19:15.889Z,7.50
2023-04-15T05:21:42.928Z,6.55
2023-04-15T05:24:09.360Z,7.40
2023-04-15T05:26:35.936Z,7.30
2023-04-15T05:29:02.745Z,8.77
2023-04-15T05:31:29.365Z,8.48
2023-04-15T05:33:55.976Z,8.40
2023-04-15T05:36:22.554Z,9.13
2023-04-15T05:38:48.885Z,7.18
2023-04-15T05:41:18.349Z,7.82
2023-04-15T05:43:46.597Z,7.97
2023-04-15T05:46:13.044Z,7.07
2023-04-15T05:48:39.494Z,7.63
2023-04-15T05:51:06.414Z,7.72
2023-04-15T05:53:32.842Z,8.23
2023-04-15T05:55:59.358Z,6.20
2023-04-15T05:58:25.968Z,7.15
2023-04-15T06:00:52.836Z,8.30
2023-04-15T06:03:19.432Z,8.40
2023-04-15T06:05:45.883Z,8.73
2023-04-15T06:08:12.505Z,7.90
2023-04-15T06:10:39.030Z,12.70
2023-04-15T06:13:05.938Z,9.37
2023-04-15T06:15:32.544Z,8.68
2023-04-15T06:17:59.311Z,7.70
2023-04-15T06:20:26.139Z,9.07
2023-04-15T06:22:52.604Z,7.85
2023-04-15T06:25:19.084Z,7.50
2023-04-15T06:27:45.495Z,7.78
2023-04-15T06:30:12.131Z,7.00
2023-04-15T06:32:38.731Z,8.63
2023-04-15T06:35:05.530Z,7.70
2023-04-15T06:37:32.654Z,9.10
2023-04-15T06:39:58.999Z,12.38
2023-04-15T06:42:25.610Z,7.10
2023-04-15T06:44:52.026Z,7.30
2023-04-15T06:47:19.721Z,8.55
2023-04-15T06:49:46.572Z,6.63
2023-04-15T06:52:13.125Z,7.88
2023-04-15T06:54:39.563Z,9.40
2023-04-15T06:57:07.386Z,8.82
2023-04-15T06:59:33.777Z,6.70
2023-04-15T07:02:00.657Z,9.30
2023-04-15T07:04:27.822Z,8.98
2023-04-15T07:06:55.556Z,8.10
2023-04-15T07:09:23.567Z,8.07
2023-04-15T07:11:50.012Z,8.43
2023-04-15T07:14:16.510Z,9.33
2023-04-15T07:16:43.048Z,8.10
2023-04-15T07:19:09.574Z,7.75
2023-04-15T07:21:35.943Z,8.80
2023-04-15T07:24:02.281Z,7.35
2023-04-15T07:26:28.667Z,10.33
2023-04-15T07:28:55.544Z,10.18
2023-04-15T07:31:22.080Z,7.38
2023-04-15T07:33:48.648Z,6.20
2023-04-15T07:36:15.344Z,6.82
2023-04-15T07:38:42.526Z,6.57
2023-04-15T07:41:09.208Z,7.15
2023-04-15T07:43:35.644Z,6.53
2023-04-15T07:46:02.148Z,5.57
2023-04-15T07:48:28.550Z,6.70
2023-04-15T07:50:54.973Z,5.53
2023-04-15T07:53:21.493Z,5.43
2023-04-15T07:55:47.892Z,4.70
2023-04-15T07:58:14.282Z,5.15
2023-04-15T08:00:40.857Z,3.85
2023-04-15T08:03:07.756Z,5.00
2023-04-15T08:05:34.545Z,3.88
2023-04-15T08:08:01.423Z,4.75
2023-04-15T08:10:29.805Z,5.03
2023-04-15T08:12:56.498Z,4.13
2023-04-15T08:15:23.574Z,5.40
2023-04-15T08:17:50.478Z,4.13
2023-04-15T08:20:17.026Z,4.72
2023-04-15T08:22:43.585Z,3.97
2023-04-15T08:25:10.413Z,4.18
2023-04-15T08:27:36.801Z,3.30
2023-04-15T08:30:04.978Z,3.92
2023-04-15T08:32:32.021Z,3.17
2023-04-15T08:34:58.574Z,2.72
2023-04-15T08:37:24.997Z,3.55
2023-04-15T08:39:51.417Z,3.27
2023-04-15T08:42:23.516Z,4.10
2023-04-15T08:44:51.099Z,3.60
2023-04-15T08:47:22.693Z,5.30
2023-04-15T08:49:53.869Z,3.47
2023-04-15T08:52:20.808Z,3.03
2023-04-15T08:54:48.049Z,3.00
2023-04-15T08:57:15.220Z,3.20
2023-04-15T08:59:42.829Z,3.17
2023-04-15T09:02:09.969Z,5.20
2023-04-15T09:04:36.459Z,4.00
2023-04-15T09:07:02.999Z,3.95
2023-04-15T09:09:29.459Z,4.88
2023-04-15T09:11:56.778Z,4.25
2023-04-15T09:14:23.858Z,4.55
2023-04-15T09:17:00.918Z,3.63
2023-04-15T09:19:27.904Z,5.15
2023-04-15T09:21:58.939Z,3.97
2023-04-15T09:24:33.665Z,4.32
2023-04-15T09:27:00.560Z,4.00
2023-04-15T09:29:27.098Z,2.97
2023-04-15T09:31:53.470Z,2.88
2023-04-15T09:34:20.071Z,2.55
2023-04-15T09:36:47.027Z,2.90
2023-04-15T09:39:14.688Z,3.92
2023-04-15T09:41:41.529Z,3.33
2023-04-15T09:44:23.481Z,2.75
2023-04-15T09:46:49.885Z,2.45
2023-04-15T09:49:17.927Z,2.47
2023-04-15T09:51:54.120Z,5.45
2023-04-15T09:54:38.160Z,3.10
2023-04-15T09:57:09.873Z,4.82
2023-04-15T09:59:36.501Z,4.22
2023-04-15T10:02:05.694Z,3.17
2023-04-15T10:04:35.082Z,2.95
2023-04-15T10:07:04.989Z,3.80
2023-04-15T10:09:33.632Z,2.35
2023-04-15T10:12:01.137Z,3.88
2023-04-15T10:14:32.529Z,3.75
2023-04-15T10:17:04.907Z,3.78
2023-04-15T10:19:34.278Z,2.07
2023-04-15T10:22:00.859Z,2.92
2023-04-15T10:24:27.945Z,3.78
2023-04-15T10:26:55.346Z,3.53
2023-04-15T10:29:23.506Z,2.33
2023-04-15T10:31:50.966Z,2.33
2023-04-15T10:34:18.264Z,1.98
2023-04-15T10:36:47.009Z,3.92
2023-04-15T10:39:42.935Z,2.67
2023-04-15T10:42:15.404Z,3.03
2023-04-15T10:44:44.361Z,2.73
2023-04-15T10:47:13.471Z,2.65
2023-04-15T10:49:50.407Z,2.97
2023-04-15T10:52:18.879Z,1.80
2023-04-15T10:54:45.607Z,2.20
2023-04-15T10:57:23.725Z,1.80
2023-04-15T10:59:59.590Z,3.85
2023-04-15T11:02:44.212Z,2.63
2023-04-15T11:05:12.181Z,2.58
2023-04-15T11:07:46.606Z,3.30
2023-04-15T11:10:25.553Z,3.23
2023-04-15T11:12:54.549Z,2.22
2023-04-15T11:15:35.829Z,3.15
2023-04-15T11:18:13.647Z,2.13
2023-04-15T11:20:44.971Z,1.90
2023-04-15T11:23:14.572Z,2.73
2023-04-15T11:25:43.189Z,2.38
2023-04-15T11:28:11.329Z,2.17
2023-04-15T11:30:39.068Z,2.58
2023-04-15T11:33:07.281Z,1.92
2023-04-15T11:35:34.485Z,1.47
2023-04-15T11:38:05.257Z,2.15
2023-04-15T11:40:33.431Z,2.85
2023-04-15T11:43:10.285Z,2.58
2023-04-15T11:46:01.483Z,1.73
2023-04-15T11:48:32.059Z,1.53
2023-04-15T11:51:03.866Z,1.67
2023-04-15T11:53:46.053Z,2.20
2023-04-15T11:56:23.700Z,1.55
2023-04-15T11:59:00.954Z,1.35
2023-04-15T12:01:43.889Z,2.17
2023-04-15T12:04:15.072Z,2.05
2023-04-15T12:06:41.644Z,1.60
2023-04-15T12:09:17.310Z,3.17
2023-04-15T12:11:53.062Z,2.65
2023-04-15T12:14:26.455Z,2.00
2023-04-15T12:16:58.298Z,1.45
2023-04-15T12:19:26.626Z,3.53
2023-04-15T12:22:00.250Z,2.40
2023-04-15T12:24:27.422Z,1.45
2023-04-15T12:26:57.692Z,1.20
2023-04-15T12:29:28.880Z,2.90
2023-04-15T12:31:58.453Z,2.03
2023-04-15T12:34:33.276Z,1.95
2023-04-15T12:37:01.641Z,1.95
2023-04-15T12:39:48.832Z,2.30
2023-04-15T12:42:16.316Z,1.50
2023-04-15T12:44:43.055Z,3.03
2023-04-15T12:47:10.909Z,1.65
2023-04-15T12:49:37.609Z,1.55
2023-04-15T12:52:04.630Z,2.50
2023-04-15T12:54:31.791Z,1.52
2023-04-15T12:56:59.530Z,1.13
2023-04-15T12:59:26.005Z,2.33
2023-04-15T13:01:53.543Z,2.58
2023-04-15T13:04:20.870Z,1.77
2023-04-15T13:06:47.900Z,1.48
2023-04-15T13:09:14.745Z,1.65
2023-04-15T13:11:41.240Z,1.60
2023-04-15T13:14:09.347Z,2.38
2023-04-15T13:16:36.194Z,3.20
2023-04-15T13:19:03.904Z,2.15
2023-04-15T13:21:34.834Z,3.00
2023-04-15T13:24:01.727Z,0.85
2023-04-15T13:26:28.224Z,1.63
2023-04-15T13:28:54.594Z,1.93
2023-04-15T13:31:21.037Z,3.42
2023-04-15T13:33:47.677Z,4.30
2023-04-15T13:36:14.125Z,2.15
2023-04-15T13:38:40.846Z,1.98
2023-04-15T13:41:07.278Z,2.90
2023-04-15T13:43:34.265Z,1.25
2023-04-15T13:46:00.724Z,2.47
2023-04-15T13:48:27.227Z,2.75
2023-04-15T13:50:53.658Z,3.03
2023-04-15T13:53:20.182Z,1.77
2023-04-15T13:55:46.624Z,1.98
2023-04-15T13:58:13.090Z,1.15
2023-04-15T14:00:39.554Z,2.10
2023-04-15T14:03:06.073Z,2.05
2023-04-15T14:05:32.914Z,3.23
2023-04-15T14:07:59.854Z,0.85
2023-04-15T14:10:26.252Z,3.15
2023-04-15T14:12:52.735Z,1.38
2023-04-15T14:15:19.248Z,1.60
2023-04-15T14:17:45.984Z,1.63
2023-04-15T14:20:14.451Z,1.55
2023-04-15T14:22:42.802Z,3.20
2023-04-15T14:25:10.480Z,1.92
2023-04-15T14:27:38.225Z,3.50
2023-04-15T14:30:05.299Z,5.70
2023-04-15T14:32:31.732Z,1.20
2023-04-15T14:34:58.222Z,2.80
2023-04-15T14:37:24.794Z,3.85
2023-04-15T14:39:51.144Z,2.95
2023-04-15T14:42:17.506Z,3.27
2023-04-15T14:44:44.833Z,2.35
2023-04-15T14:47:11.316Z,3.83
2023-04-15T14:49:37.723Z,3.63
2023-04-15T14:52:04.410Z,2.05
2023-04-15T14:54:30.847Z,4.10
2023-04-15T14:56:57.362Z,4.65
2023-04-15T14:59:23.817Z,1.67
2023-04-15T15:01:50.420Z,3.00
2023-04-15T15:04:17.112Z,3.75
2023-04-15T15:06:43.717Z,3.93
2023-04-15T15:09:10.208Z,6.85
2023-04-15T15:11:36.616Z,3.97
2023-04-15T15:14:03.050Z,7.05
2023-04-15T15:16:29.738Z,2.03
2023-04-15T15:18:56.350Z,1.77
2023-04-15T15:21:22.858Z,3.13
2023-04-15T15:23:49.394Z,4.22
2023-04-15T15:26:15.930Z,2.83
2023-04-15T15:28:42.495Z,2.70
2023-04-15T15:31:09.038Z,3.53
2023-04-15T15:33:35.520Z,2.15
2023-04-15T15:36:03.154Z,3.75
2023-04-15T15:38:29.721Z,3.40
2023-04-15T15:40:56.157Z,2.55
2023-04-15T15:43:22.555Z,2.03
2023-04-15T15:45:51.650Z,4.00
2023-04-15T15:48:18.481Z,2.97
2023-04-15T15:50:45.739Z,2.45
2023-04-15T15:53:17.762Z,3.25
2023-04-15T15:55:44.106Z,4.03
2023-04-15T15:58:10.481Z,4.00
2023-04-15T16:00:36.903Z,2.47
2023-04-15T16:03:07.232Z,5.20
2023-04-15T16:05:35.047Z,5.55
2023-04-15T16:08:01.893Z,2.83
2023-04-15T16:10:28.868Z,2.38
2023-04-15T16:12:55.670Z,4.63
2023-04-15T16:15:25.222Z,3.92
2023-04-15T16:17:51.865Z,6.18
2023-04-15T16:20:18.435Z,2.67
2023-04-15T16:22:44.971Z,7.72
2023-04-15T16:25:11.384Z,7.10
2023-04-15T16:27:54.060Z,4.03
2023-04-15T16:30:24.545Z,3.95
2023-04-15T16:32:51.591Z,1.70
2023-04-15T16:35:18.417Z,6.13
2023-04-15T16:37:44.803Z,2.40
2023-04-15T16:40:11.602Z,3.70
2023-04-15T16:42:38.022Z,4.68
2023-04-15T16:45:04.799Z,8.27
2023-04-15T16:47:31.286Z,4.50
2023-04-15T16:49:57.736Z,7.68
2023-04-15T16:52:24.126Z,5.10
2023-04-15T16:54:50.491Z,1.75
2023-04-15T16:57:16.877Z,3.13
2023-04-15T16:59:44.600Z,5.18
2023-04-15T17:02:13.107Z,4.95
2023-04-15T17:04:39.870Z,4.85
2023-04-15T17:07:06.772Z,4.47
2023-04-15T17:09:33.242Z,4.83
2023-04-15T17:11:59.791Z,2.33
2023-04-15T17:14:27.926Z,3.83
2023-04-15T17:16:54.465Z,9.70
2023-04-15T17:19:21.121Z,7.95
2023-04-15T17:21:47.745Z,2.00
2023-04-15T17:24:14.117Z,11.13
2023-04-15T17:26:41.066Z,3.20
2023-04-15T17:29:07.564Z,4.10
2023-04-15T17:31:34.079Z,5.75
2023-04-15T17:34:09.235Z,6.40
2023-04-15T17:36:36.186Z,6.28
2023-04-15T17:39:02.943Z,3.03
2023-04-15T17:41:29.601Z,6.82
2023-04-15T17:43:55.978Z,3.28
2023-04-15T17:46:22.550Z,6.47
2023-04-15T17:48:49.470Z,3.28
2023-04-15T17:51:16.994Z,6.20
2023-04-15T17:53:43.385Z,4.18
2023-04-15T17:56:09.904Z,5.43
2023-04-15T17:58:36.410Z,4.63
2023-04-15T18:01:02.885Z,13.70
2023-04-15T18:03:29.335Z,4.13
2023-04-15T18:05:55.896Z,4.60
2023-04-15T18:08:22.513Z,3.13
2023-04-15T18:10:48.952Z,3.20
2023-04-15T18:13:15.436Z,7.18
2023-04-15T18:15:41.987Z,4.20
2023-04-15T18:18:08.518Z,3.08
2023-04-15T18:20:34.916Z,5.25
2023-04-15T18:23:01.487Z,1.70
2023-04-15T18:25:29.171Z,3.25
2023-04-15T18:27:55.933Z,5.28
2023-04-15T18:30:23.485Z,5.13
2023-04-15T18:32:50.001Z,2.17
2023-04-15T18:35:17.106Z,8.30
2023-04-15T18:37:43.700Z,3.15
2023-04-15T18:40:10.547Z,5.25
2023-04-15T18:42:36.954Z,4.57
2023-04-15T18:45:03.712Z,6.55
2023-04-15T18:47:30.413Z,4.50
2023-04-15T18:49:58.348Z,5.10
2023-04-15T18:52:24.734Z,2.45
2023-04-15T18:54:51.132Z,3.42
2023-04-15T18:57:23.546Z,4.95
2023-04-15T18:59:58.064Z,2.97
2023-04-15T19:02:24.580Z,4.55
2023-04-15T19:04:51.055Z,2.35
2023-04-15T19:07:17.629Z,2.55
2023-04-15T19:09:44.029Z,1.90
2023-04-15T19:12:10.490Z,3.90
2023-04-15T19:14:36.919Z,5.95
2023-04-15T19:17:03.382Z,1.08
2023-04-15T19:19:29.938Z,4.05
2023-04-15T19:21:56.433Z,4.15
2023-04-15T19:24:23.068Z,6.97
2023-04-15T19:26:51.098Z,2.55
2023-04-15T19:29:17.769Z,3.58
2023-04-15T19:31:44.337Z,3.88
2023-04-15T19:34:10.801Z,4.57
2023-04-15T19:36:37.239Z,3.87
2023-04-15T19:39:04.078Z,2.20
2023-04-15T19:41:30.578Z,2.72
2023-04-15T19:43:57.105Z,3.03
2023-04-15T19:46:23.995Z,4.30
2023-04-15T19:48:50.532Z,4.00
2023-04-15T19:51:16.922Z,5.13
2023-04-15T19:53:43.505Z,8.30
2023-04-15T19:56:09.887Z,3.80
2023-04-15T19:58:36.302Z,7.20
2023-04-15T20:01:02.701Z,6.93
2023-04-15T20:03:29.272Z,2.88
2023-04-15T20:05:55.718Z,4.25
2023-04-15T20:08:22.223Z,6.95
2023-04-15T20:10:48.921Z,7.18
2023-04-15T20:13:15.292Z,3.93
2023-04-15T20:15:41.732Z,1.77
2023-04-15T20:18:08.199Z,1.88
2023-04-15T20:20:35.341Z,5.10
2023-04-15T20:23:01.761Z,4.53
2023-04-15T20:25:28.245Z,2.37
2023-04-15T20:27:54.602Z,2.97
2023-04-15T20:30:20.990Z,5.90
2023-04-15T20:32:47.676Z,1.83
2023-04-15T20:35:14.100Z,3.72
2023-04-15T20:37:43.319Z,5.53
2023-04-15T20:40:10.256Z,6.63
2023-04-15T20:42:36.935Z,2.67
2023-04-15T20:45:03.828Z,2.90
2023-04-15T20:47:30.429Z,4.45
2023-04-15T20:49:56.956Z,6.70
2023-04-15T20:52:23.751Z,5.45
2023-04-15T20:54:50.423Z,5.25
2023-04-15T20:57:17.197Z,5.45
2023-04-15T20:59:43.816Z,4.03
2023-04-15T21:02:10.566Z,5.63
2023-04-15T21:04:38.281Z,7.38
2023-04-15T21:07:04.854Z,2.97
2023-04-15T21:09:31.329Z,10.20
2023-04-15T21:12:01.534Z,6.97
2023-04-15T21:14:28.871Z,3.80
2023-04-15T21:16:57.166Z,5.65
2023-04-15T21:19:23.725Z,4.47
2023-04-15T21:21:50.170Z,6.72
2023-04-15T21:24:16.562Z,5.10
2023-04-15T21:26:42.931Z,3.73
2023-04-15T21:29:11.466Z,5.00
2023-04-15T21:31:38.422Z,7.20
2023-04-15T21:34:05.184Z,4.60
2023-04-15T21:36:31.840Z,1.73
2023-04-15T21:38:58.289Z,2.07
2023-04-15T21:41:24.809Z,1.38
2023-04-15T21:43:51.266Z,3.72
2023-04-15T21:46:23.352Z,3.15
2023-04-15T21:48:52.472Z,2.00
2023-04-15T21:51:19.048Z,3.10
2023-04-15T21:53:45.641Z,4.47
2023-04-15T21:56:12.065Z,2.97
2023-04-15T21:58:38.536Z,1.42
2023-04-15T22:01:05.204Z,2.53
2023-04-15T22:03:34.057Z,2.10
2023-04-15T22:06:02.325Z,3.55
2023-04-15T22:08:28.898Z,2.28
2023-04-15T22:10:55.489Z,3.13
2023-04-15T22:13:21.940Z,4.03
2023-04-15T22:15:48.336Z,4.77
2023-04-15T22:18:14.834Z,4.47
2023-04-15T22:20:41.460Z,6.90
2023-04-15T22:23:08.906Z,1.33
2023-04-15T22:25:39.241Z,2.58
2023-04-15T22:28:08.203Z,6.40
2023-04-15T22:30:41.719Z,6.18
2023-04-15T22:33:09.351Z,4.95
2023-04-15T22:35:37.263Z,2.70
2023-04-15T22:38:04.736Z,6.07
2023-04-15T22:40:31.143Z,7.70
2023-04-15T22:42:57.581Z,3.30
2023-04-15T22:45:24.082Z,3.85
2023-04-15T22:47:50.577Z,3.17
2023-04-15T22:50:17.157Z,6.00
2023-04-15T22:52:46.169Z,5.27
2023-04-15T22:55:13.206Z,8.07
2023-04-15T22:57:39.689Z,3.80
2023-04-15T23:00:07.353Z,5.93
2023-04-15T23:02:34.698Z,5.72
2023-04-15T23:05:03.880Z,5.83
2023-04-15T23:07:38.786Z,7.22
2023-04-15T23:10:05.672Z,4.82
2023-04-15T23:12:32.060Z,4.25
2023-04-15T23:14:58.511Z,5.45
2023-04-15T23:17:24.975Z,9.30
2023-04-15T23:19:51.556Z,4.78
2023-04-15T23:22:18.536Z,5.85
2023-04-15T23:24:44.956Z,6.43
2023-04-15T23:27:11.332Z,4.68
2023-04-15T23:29:37.675Z,7.60
2023-04-15T23:32:04.182Z,3.45
2023-04-15T23:34:30.771Z,7.45
2023-04-15T23:36:57.235Z,4.63
2023-04-15T23:39:23.729Z,4.82
2023-04-15T23:41:50.223Z,6.13
2023-04-15T23:44:16.682Z,4.28
2023-04-15T23:46:43.104Z,5.78
2023-04-15T23:49:09.709Z,5.55
2023-04-15T23:51:36.267Z,5.78
2023-04-15T23:54:02.802Z,5.27
2023-04-15T23:56:29.185Z,5.55
2023-04-15T23:58:55.608Z,6.43
